sensor_id;sensor_type;location;lat;lon;timestamp;P1;durP1;ratioP1;P2;durP2;ratioP2
15996;SDS011;8103;51.340;12.326;2023-03-01T00:01:39;15.80;;;11.30;;
15996;SDS011;8103;51.340;12.326;2023-03-01T00:04:06;18.20;;;10.87;;
15996;SDS011;8103;51.340;12.326;2023-03-01T00:06:34;13.60;;;9.67;;
15996;SDS011;8103;51.340;12.326;2023-03-01T00:09:01;17.57;;;9.60;;
15996;SDS011;8103;51.340;12.326;2023-03-01T00:11:29;18.63;;;11.30;;
15996;SDS011;8103;51.340;12.326;2023-03-01T00:13:58;12.40;;;9.83;;
15996;SDS011;8103;51.340;12.326;2023-03-01T00:16:29;12.53;;;9.90;;
15996;SDS011;8103;51.340;12.326;2023-03-01T00:19:02;13.73;;;10.00;;
15996;SDS011;8103;51.340;12.326;2023-03-01T00:21:29;14.13;;;9.17;;
15996;SDS011;8103;51.340;12.326;2023-03-01T00:23:57;11.93;;;8.87;;
15996;SDS011;8103;51.340;12.326;2023-03-01T00:26:24;13.13;;;9.57;;
15996;SDS011;8103;51.340;12.326;2023-03-01T00:28:52;13.43;;;9.33;;
15996;SDS011;8103;51.340;12.326;2023-03-01T00:31:24;15.77;;;9.70;;
15996;SDS011;8103;51.340;12.326;2023-03-01T00:34:04;14.93;;;9.27;;
15996;SDS011;8103;51.340;12.326;2023-03-01T00:36:35;12.60;;;9.50;;
15996;SDS011;8103;51.340;12.326;2023-03-01T00:39:04;14.80;;;9.63;;
15996;SDS011;8103;51.340;12.326;2023-03-01T00:41:37;18.13;;;10.23;;
15996;SDS011;8103;51.340;12.326;2023-03-01T00:44:04;13.80;;;9.67;;
15996;SDS011;8103;51.340;12.326;2023-03-01T00:46:31;13.70;;;9.53;;
15996;SDS011;8103;51.340;12.326;2023-03-01T00:48:58;14.40;;;10.10;;
15996;SDS011;8103;51.340;12.326;2023-03-01T00:51:28;15.40;;;10.03;;
15996;SDS011;8103;51.340;12.326;2023-03-01T00:53:59;12.07;;;9.13;;
15996;SDS011;8103;51.340;12.326;2023-03-01T00:56:29;12.63;;;8.17;;
15996;SDS011;8103;51.340;12.326;2023-03-01T00:58:57;15.10;;;9.23;;
15996;SDS011;8103;51.340;12.326;2023-03-01T01:01:28;11.80;;;8.57;;
15996;SDS011;8103;51.340;12.326;2023-03-01T01:03:57;14.00;;;9.33;;
15996;SDS011;8103;51.340;12.326;2023-03-01T01:06:33;13.90;;;9.83;;
15996;SDS011;8103;51.340;12.326;2023-03-01T01:09:11;11.00;;;8.77;;
15996;SDS011;8103;51.340;12.326;2023-03-01T01:11:46;16.50;;;9.77;;
15996;SDS011;8103;51.340;12.326;2023-03-01T01:14:16;12.80;;;8.67;;
15996;SDS011;8103;51.340;12.326;2023-03-01T01:16:44;14.87;;;11.20;;
15996;SDS011;8103;51.340;12.326;2023-03-01T01:19:11;12.80;;;9.37;;
15996;SDS011;8103;51.340;12.326;2023-03-01T01:21:39;11.73;;;8.70;;
15996;SDS011;8103;51.340;12.326;2023-03-01T01:24:09;16.10;;;10.03;;
15996;SDS011;8103;51.340;12.326;2023-03-01T01:26:37;15.33;;;9.97;;
15996;SDS011;8103;51.340;12.326;2023-03-01T01:29:04;15.67;;;9.57;;
15996;SDS011;8103;51.340;12.326;2023-03-01T01:31:32;15.53;;;10.33;;
15996;SDS011;8103;51.340;12.326;2023-03-01T01:34:01;19.60;;;11.17;;
15996;SDS011;8103;51.340;12.326;2023-03-01T01:36:31;16.93;;;10.60;;
15996;SDS011;8103;51.340;12.326;2023-03-01T01:39:00;12.57;;;9.50;;
15996;SDS011;8103;51.340;12.326;2023-03-01T01:41:27;16.63;;;10.67;;
15996;SDS011;8103;51.340;12.326;2023-03-01T01:47:00;16.67;;;10.80;;
15996;SDS011;8103;51.340;12.326;2023-03-01T01:49:37;15.17;;;9.77;;
15996;SDS011;8103;51.340;12.326;2023-03-01T01:52:22;15.27;;;9.97;;
15996;SDS011;8103;51.340;12.326;2023-03-01T01:55:05;13.40;;;8.77;;
15996;SDS011;8103;51.340;12.326;2023-03-01T01:57:45;14.80;;;9.60;;
15996;SDS011;8103;51.340;12.326;2023-03-01T02:00:21;18.13;;;9.63;;
15996;SDS011;8103;51.340;12.326;2023-03-01T02:02:57;16.00;;;10.63;;
15996;SDS011;8103;51.340;12.326;2023-03-01T02:05:40;19.30;;;10.90;;
15996;SDS011;8103;51.340;12.326;2023-03-01T02:08:23;15.03;;;9.90;;
15996;SDS011;8103;51.340;12.326;2023-03-01T02:10:54;14.83;;;9.57;;
15996;SDS011;8103;51.340;12.326;2023-03-01T02:13:23;15.57;;;8.97;;
15996;SDS011;8103;51.340;12.326;2023-03-01T02:15:50;11.43;;;9.00;;
15996;SDS011;8103;51.340;12.326;2023-03-01T02:18:18;13.70;;;9.43;;
15996;SDS011;8103;51.340;12.326;2023-03-01T02:23:47;14.27;;;9.30;;
15996;SDS011;8103;51.340;12.326;2023-03-01T02:29:08;13.37;;;9.03;;
15996;SDS011;8103;51.340;12.326;2023-03-01T02:31:35;14.23;;;8.90;;
15996;SDS011;8103;51.340;12.326;2023-03-01T02:34:09;11.47;;;8.37;;
15996;SDS011;8103;51.340;12.326;2023-03-01T02:37:09;12.30;;;8.13;;
15996;SDS011;8103;51.340;12.326;2023-03-01T02:39:47;14.73;;;9.60;;
15996;SDS011;8103;51.340;12.326;2023-03-01T02:42:33;10.37;;;7.73;;
15996;SDS011;8103;51.340;12.326;2023-03-01T02:45:12;13.23;;;8.57;;
15996;SDS011;8103;51.340;12.326;2023-03-01T02:47:39;14.03;;;8.17;;
15996;SDS011;8103;51.340;12.326;2023-03-01T02:53:10;13.87;;;7.63;;
15996;SDS011;8103;51.340;12.326;2023-03-01T02:55:54;11.00;;;8.43;;
15996;SDS011;8103;51.340;12.326;2023-03-01T02:58:21;12.60;;;8.13;;
15996;SDS011;8103;51.340;12.326;2023-03-01T03:00:47;14.43;;;8.83;;
15996;SDS011;8103;51.340;12.326;2023-03-01T03:03:16;13.13;;;7.90;;
15996;SDS011;8103;51.340;12.326;2023-03-01T03:05:46;12.30;;;7.83;;
15996;SDS011;8103;51.340;12.326;2023-03-01T03:08:14;11.50;;;8.80;;
15996;SDS011;8103;51.340;12.326;2023-03-01T03:10:47;15.80;;;8.37;;
15996;SDS011;8103;51.340;12.326;2023-03-01T03:13:14;17.97;;;8.40;;
15996;SDS011;8103;51.340;12.326;2023-03-01T03:15:42;14.37;;;8.07;;
15996;SDS011;8103;51.340;12.326;2023-03-01T03:18:11;10.83;;;8.07;;
15996;SDS011;8103;51.340;12.326;2023-03-01T03:20:41;15.30;;;8.87;;
15996;SDS011;8103;51.340;12.326;2023-03-01T03:23:10;12.97;;;9.00;;
15996;SDS011;8103;51.340;12.326;2023-03-01T03:25:39;14.20;;;8.10;;
15996;SDS011;8103;51.340;12.326;2023-03-01T03:28:06;15.57;;;9.33;;
15996;SDS011;8103;51.340;12.326;2023-03-01T03:30:37;11.87;;;7.93;;
15996;SDS011;8103;51.340;12.326;2023-03-01T03:33:07;15.87;;;8.57;;
15996;SDS011;8103;51.340;12.326;2023-03-01T03:35:39;14.30;;;9.10;;
15996;SDS011;8103;51.340;12.326;2023-03-01T03:38:10;15.37;;;9.20;;
15996;SDS011;8103;51.340;12.326;2023-03-01T03:40:44;10.63;;;7.63;;
15996;SDS011;8103;51.340;12.326;2023-03-01T03:43:14;11.10;;;7.57;;
15996;SDS011;8103;51.340;12.326;2023-03-01T03:45:44;14.03;;;9.07;;
15996;SDS011;8103;51.340;12.326;2023-03-01T03:48:13;12.73;;;8.40;;
15996;SDS011;8103;51.340;12.326;2023-03-01T03:50:41;11.20;;;8.13;;
15996;SDS011;8103;51.340;12.326;2023-03-01T03:53:15;16.33;;;10.13;;
15996;SDS011;8103;51.340;12.326;2023-03-01T03:55:43;18.17;;;9.67;;
15996;SDS011;8103;51.340;12.326;2023-03-01T03:58:11;15.07;;;9.23;;
15996;SDS011;8103;51.340;12.326;2023-03-01T04:00:39;16.03;;;9.57;;
15996;SDS011;8103;51.340;12.326;2023-03-01T04:03:08;14.63;;;9.10;;
15996;SDS011;8103;51.340;12.326;2023-03-01T04:05:37;15.27;;;9.13;;
15996;SDS011;8103;51.340;12.326;2023-03-01T04:08:06;20.20;;;10.07;;
15996;SDS011;8103;51.340;12.326;2023-03-01T04:10:38;16.93;;;10.20;;
15996;SDS011;8103;51.340;12.326;2023-03-01T04:13:09;16.23;;;9.67;;
15996;SDS011;8103;51.340;12.326;2023-03-01T04:15:41;13.37;;;9.83;;
15996;SDS011;8103;51.340;12.326;2023-03-01T04:18:11;13.23;;;9.17;;
15996;SDS011;8103;51.340;12.326;2023-03-01T04:20:41;17.13;;;10.03;;
15996;SDS011;8103;51.340;12.326;2023-03-01T04:23:10;14.23;;;8.93;;
15996;SDS011;8103;51.340;12.326;2023-03-01T04:25:47;14.47;;;9.30;;
15996;SDS011;8103;51.340;12.326;2023-03-01T04:28:24;13.87;;;8.57;;
15996;SDS011;8103;51.340;12.326;2023-03-01T04:31:04;13.60;;;8.77;;
15996;SDS011;8103;51.340;12.326;2023-03-01T04:33:46;14.30;;;8.77;;
15996;SDS011;8103;51.340;12.326;2023-03-01T04:36:20;15.47;;;9.47;;
15996;SDS011;8103;51.340;12.326;2023-03-01T04:38:51;13.27;;;8.60;;
15996;SDS011;8103;51.340;12.326;2023-03-01T04:41:19;13.73;;;8.70;;
15996;SDS011;8103;51.340;12.326;2023-03-01T04:43:48;12.23;;;8.20;;
15996;SDS011;8103;51.340;12.326;2023-03-01T04:46:17;12.40;;;8.80;;
15996;SDS011;8103;51.340;12.326;2023-03-01T04:48:46;17.50;;;7.97;;
15996;SDS011;8103;51.340;12.326;2023-03-01T04:51:14;16.63;;;9.73;;
15996;SDS011;8103;51.340;12.326;2023-03-01T04:53:42;19.87;;;10.00;;
15996;SDS011;8103;51.340;12.326;2023-03-01T04:56:10;18.37;;;10.47;;
15996;SDS011;8103;51.340;12.326;2023-03-01T04:58:40;16.37;;;10.27;;
15996;SDS011;8103;51.340;12.326;2023-03-01T05:01:08;19.47;;;10.97;;
15996;SDS011;8103;51.340;12.326;2023-03-01T05:03:43;17.97;;;10.27;;
15996;SDS011;8103;51.340;12.326;2023-03-01T05:06:16;17.80;;;9.97;;
15996;SDS011;8103;51.340;12.326;2023-03-01T05:08:44;13.70;;;10.33;;
15996;SDS011;8103;51.340;12.326;2023-03-01T05:11:12;15.00;;;10.00;;
15996;SDS011;8103;51.340;12.326;2023-03-01T05:13:39;14.07;;;9.50;;
15996;SDS011;8103;51.340;12.326;2023-03-01T05:16:07;20.27;;;10.23;;
15996;SDS011;8103;51.340;12.326;2023-03-01T05:18:39;15.47;;;9.27;;
15996;SDS011;8103;51.340;12.326;2023-03-01T05:21:11;10.87;;;8.37;;
15996;SDS011;8103;51.340;12.326;2023-03-01T05:23:45;18.53;;;9.50;;
15996;SDS011;8103;51.340;12.326;2023-03-01T05:26:13;14.27;;;9.40;;
15996;SDS011;8103;51.340;12.326;2023-03-01T05:28:58;13.73;;;9.03;;
15996;SDS011;8103;51.340;12.326;2023-03-01T05:31:26;14.93;;;9.70;;
15996;SDS011;8103;51.340;12.326;2023-03-01T05:33:53;10.63;;;7.87;;
15996;SDS011;8103;51.340;12.326;2023-03-01T05:36:20;14.90;;;9.87;;
15996;SDS011;8103;51.340;12.326;2023-03-01T05:38:47;14.10;;;9.73;;
15996;SDS011;8103;51.340;12.326;2023-03-01T05:41:14;13.70;;;9.53;;
15996;SDS011;8103;51.340;12.326;2023-03-01T05:43:43;13.60;;;8.90;;
15996;SDS011;8103;51.340;12.326;2023-03-01T05:46:11;13.40;;;8.97;;
15996;SDS011;8103;51.340;12.326;2023-03-01T05:48:39;14.47;;;9.60;;
15996;SDS011;8103;51.340;12.326;2023-03-01T05:51:06;16.87;;;9.97;;
15996;SDS011;8103;51.340;12.326;2023-03-01T05:53:33;13.63;;;9.67;;
15996;SDS011;8103;51.340;12.326;2023-03-01T05:56:02;16.40;;;9.33;;
15996;SDS011;8103;51.340;12.326;2023-03-01T05:58:31;18.67;;;11.33;;
15996;SDS011;8103;51.340;12.326;2023-03-01T06:00:57;16.60;;;10.37;;
15996;SDS011;8103;51.340;12.326;2023-03-01T06:03:24;16.40;;;11.40;;
15996;SDS011;8103;51.340;12.326;2023-03-01T06:05:55;17.40;;;9.83;;
15996;SDS011;8103;51.340;12.326;2023-03-01T06:08:23;15.37;;;9.40;;
15996;SDS011;8103;51.340;12.326;2023-03-01T06:10:52;15.20;;;10.13;;
15996;SDS011;8103;51.340;12.326;2023-03-01T06:13:20;16.03;;;10.30;;
15996;SDS011;8103;51.340;12.326;2023-03-01T06:15:47;14.40;;;10.20;;
15996;SDS011;8103;51.340;12.326;2023-03-01T06:18:14;15.30;;;9.57;;
15996;SDS011;8103;51.340;12.326;2023-03-01T06:20:41;12.20;;;8.80;;
15996;SDS011;8103;51.340;12.326;2023-03-01T06:23:08;22.03;;;11.20;;
15996;SDS011;8103;51.340;12.326;2023-03-01T06:25:35;19.47;;;11.63;;
15996;SDS011;8103;51.340;12.326;2023-03-01T06:28:03;18.17;;;10.93;;
15996;SDS011;8103;51.340;12.326;2023-03-01T06:30:33;13.67;;;9.90;;
15996;SDS011;8103;51.340;12.326;2023-03-01T06:33:01;14.20;;;10.70;;
15996;SDS011;8103;51.340;12.326;2023-03-01T06:35:31;18.80;;;11.53;;
15996;SDS011;8103;51.340;12.326;2023-03-01T06:37:59;17.37;;;10.83;;
15996;SDS011;8103;51.340;12.326;2023-03-01T06:40:31;18.33;;;11.53;;
15996;SDS011;8103;51.340;12.326;2023-03-01T06:42:58;19.93;;;12.80;;
15996;SDS011;8103;51.340;12.326;2023-03-01T06:45:26;22.40;;;11.47;;
15996;SDS011;8103;51.340;12.326;2023-03-01T06:48:00;16.77;;;10.37;;
15996;SDS011;8103;51.340;12.326;2023-03-01T06:50:30;18.47;;;10.63;;
15996;SDS011;8103;51.340;12.326;2023-03-01T06:52:57;14.93;;;10.23;;
15996;SDS011;8103;51.340;12.326;2023-03-01T06:55:24;18.67;;;9.67;;
15996;SDS011;8103;51.340;12.326;2023-03-01T06:57:56;18.97;;;11.13;;
15996;SDS011;8103;51.340;12.326;2023-03-01T07:00:25;23.90;;;14.33;;
15996;SDS011;8103;51.340;12.326;2023-03-01T07:02:54;22.17;;;12.10;;
15996;SDS011;8103;51.340;12.326;2023-03-01T07:05:24;14.60;;;10.50;;
15996;SDS011;8103;51.340;12.326;2023-03-01T07:07:52;15.27;;;11.33;;
15996;SDS011;8103;51.340;12.326;2023-03-01T07:10:23;15.03;;;9.87;;
15996;SDS011;8103;51.340;12.326;2023-03-01T07:12:53;20.53;;;10.80;;
15996;SDS011;8103;51.340;12.326;2023-03-01T07:15:23;18.60;;;10.03;;
15996;SDS011;8103;51.340;12.326;2023-03-01T07:17:55;18.13;;;10.87;;
15996;SDS011;8103;51.340;12.326;2023-03-01T07:20:23;13.83;;;10.83;;
15996;SDS011;8103;51.340;12.326;2023-03-01T07:22:52;15.00;;;10.27;;
15996;SDS011;8103;51.340;12.326;2023-03-01T07:25:24;14.50;;;10.73;;
15996;SDS011;8103;51.340;12.326;2023-03-01T07:27:52;18.57;;;10.20;;
15996;SDS011;8103;51.340;12.326;2023-03-01T07:30:20;17.50;;;10.63;;
15996;SDS011;8103;51.340;12.326;2023-03-01T07:32:48;14.07;;;10.43;;
15996;SDS011;8103;51.340;12.326;2023-03-01T07:35:21;15.50;;;10.07;;
15996;SDS011;8103;51.340;12.326;2023-03-01T07:37:53;15.17;;;10.40;;
15996;SDS011;8103;51.340;12.326;2023-03-01T07:40:20;19.77;;;11.33;;
15996;SDS011;8103;51.340;12.326;2023-03-01T07:42:47;15.80;;;10.40;;
15996;SDS011;8103;51.340;12.326;2023-03-01T07:45:13;15.57;;;10.80;;
15996;SDS011;8103;51.340;12.326;2023-03-01T07:47:40;18.33;;;10.88;;
15996;SDS011;8103;51.340;12.326;2023-03-01T07:50:07;19.07;;;11.00;;
15996;SDS011;8103;51.340;12.326;2023-03-01T07:52:35;17.40;;;10.73;;
15996;SDS011;8103;51.340;12.326;2023-03-01T07:55:02;14.15;;;9.82;;
15996;SDS011;8103;51.340;12.326;2023-03-01T07:57:29;16.38;;;10.68;;
15996;SDS011;8103;51.340;12.326;2023-03-01T07:59:56;17.88;;;10.82;;
15996;SDS011;8103;51.340;12.326;2023-03-01T08:02:23;20.20;;;10.80;;
15996;SDS011;8103;51.340;12.326;2023-03-01T08:04:50;18.20;;;11.87;;
15996;SDS011;8103;51.340;12.326;2023-03-01T08:07:16;19.52;;;11.00;;
15996;SDS011;8103;51.340;12.326;2023-03-01T08:09:43;15.95;;;10.57;;
15996;SDS011;8103;51.340;12.326;2023-03-01T08:12:10;16.05;;;10.35;;
15996;SDS011;8103;51.340;12.326;2023-03-01T08:14:37;18.25;;;10.70;;
15996;SDS011;8103;51.340;12.326;2023-03-01T08:17:03;13.98;;;9.98;;
15996;SDS011;8103;51.340;12.326;2023-03-01T08:19:30;14.90;;;10.52;;
15996;SDS011;8103;51.340;12.326;2023-03-01T08:21:57;16.80;;;10.68;;
15996;SDS011;8103;51.340;12.326;2023-03-01T08:24:24;13.98;;;9.70;;
15996;SDS011;8103;51.340;12.326;2023-03-01T08:26:51;18.55;;;10.02;;
15996;SDS011;8103;51.340;12.326;2023-03-01T08:29:19;16.70;;;11.40;;
15996;SDS011;8103;51.340;12.326;2023-03-01T08:31:47;18.30;;;12.27;;
15996;SDS011;8103;51.340;12.326;2023-03-01T08:34:15;16.55;;;10.95;;
15996;SDS011;8103;51.340;12.326;2023-03-01T08:36:45;15.50;;;10.40;;
15996;SDS011;8103;51.340;12.326;2023-03-01T08:39:13;19.25;;;11.38;;
15996;SDS011;8103;51.340;12.326;2023-03-01T08:41:43;17.35;;;11.68;;
15996;SDS011;8103;51.340;12.326;2023-03-01T08:44:13;17.25;;;12.43;;
15996;SDS011;8103;51.340;12.326;2023-03-01T08:46:45;17.48;;;11.32;;
15996;SDS011;8103;51.340;12.326;2023-03-01T08:49:14;22.20;;;12.75;;
15996;SDS011;8103;51.340;12.326;2023-03-01T08:51:44;16.40;;;10.95;;
15996;SDS011;8103;51.340;12.326;2023-03-01T08:54:13;19.17;;;12.23;;
15996;SDS011;8103;51.340;12.326;2023-03-01T08:56:47;16.58;;;11.88;;
15996;SDS011;8103;51.340;12.326;2023-03-01T08:59:15;16.70;;;11.45;;
15996;SDS011;8103;51.340;12.326;2023-03-01T09:01:43;26.40;;;14.35;;
15996;SDS011;8103;51.340;12.326;2023-03-01T09:04:11;19.00;;;12.00;;
15996;SDS011;8103;51.340;12.326;2023-03-01T09:06:38;20.90;;;12.70;;
15996;SDS011;8103;51.340;12.326;2023-03-01T09:09:06;20.63;;;12.23;;
15996;SDS011;8103;51.340;12.326;2023-03-01T09:11:41;16.10;;;11.82;;
15996;SDS011;8103;51.340;12.326;2023-03-01T09:14:10;19.42;;;12.52;;
15996;SDS011;8103;51.340;12.326;2023-03-01T09:16:39;17.60;;;12.45;;
15996;SDS011;8103;51.340;12.326;2023-03-01T09:19:06;25.83;;;12.30;;
15996;SDS011;8103;51.340;12.326;2023-03-01T09:21:33;16.02;;;11.68;;
15996;SDS011;8103;51.340;12.326;2023-03-01T09:24:08;18.67;;;11.25;;
15996;SDS011;8103;51.340;12.326;2023-03-01T09:26:40;17.08;;;10.85;;
15996;SDS011;8103;51.340;12.326;2023-03-01T09:29:08;18.23;;;10.80;;
15996;SDS011;8103;51.340;12.326;2023-03-01T09:31:36;18.23;;;11.55;;
15996;SDS011;8103;51.340;12.326;2023-03-01T09:34:03;16.50;;;10.52;;
15996;SDS011;8103;51.340;12.326;2023-03-01T09:36:31;15.25;;;12.07;;
15996;SDS011;8103;51.340;12.326;2023-03-01T09:38:59;14.65;;;10.60;;
15996;SDS011;8103;51.340;12.326;2023-03-01T09:47:05;12.15;;;10.02;;
15996;SDS011;8103;51.340;12.326;2023-03-01T09:49:47;15.32;;;11.63;;
15996;SDS011;8103;51.340;12.326;2023-03-01T09:53:03;16.23;;;12.32;;
15996;SDS011;8103;51.340;12.326;2023-03-01T09:55:59;14.68;;;11.27;;
15996;SDS011;8103;51.340;12.326;2023-03-01T09:58:55;15.65;;;11.77;;
15996;SDS011;8103;51.340;12.326;2023-03-01T10:04:33;13.82;;;11.07;;
15996;SDS011;8103;51.340;12.326;2023-03-01T10:09:48;12.65;;;11.05;;
15996;SDS011;8103;51.340;12.326;2023-03-01T10:12:22;12.32;;;11.02;;
15996;SDS011;8103;51.340;12.326;2023-03-01T10:15:11;17.65;;;14.55;;
15996;SDS011;8103;51.340;12.326;2023-03-01T10:17:50;14.68;;;11.98;;
15996;SDS011;8103;51.340;12.326;2023-03-01T10:20:37;11.45;;;10.02;;
15996;SDS011;8103;51.340;12.326;2023-03-01T10:23:14;13.77;;;10.27;;
15996;SDS011;8103;51.340;12.326;2023-03-01T10:25:52;12.25;;;10.95;;
15996;SDS011;8103;51.340;12.326;2023-03-01T10:31:38;14.13;;;11.57;;
15996;SDS011;8103;51.340;12.326;2023-03-01T10:34:22;12.38;;;10.88;;
15996;SDS011;8103;51.340;12.326;2023-03-01T10:37:16;11.52;;;10.25;;
15996;SDS011;8103;51.340;12.326;2023-03-01T10:40:21;15.82;;;10.98;;
15996;SDS011;8103;51.340;12.326;2023-03-01T10:42:48;12.55;;;10.18;;
15996;SDS011;8103;51.340;12.326;2023-03-01T10:45:23;13.13;;;10.35;;
15996;SDS011;8103;51.340;12.326;2023-03-01T10:48:11;12.30;;;11.02;;
15996;SDS011;8103;51.340;12.326;2023-03-01T10:50:43;19.08;;;12.20;;
15996;SDS011;8103;51.340;12.326;2023-03-01T10:55:59;11.00;;;9.18;;
15996;SDS011;8103;51.340;12.326;2023-03-01T10:58:34;10.68;;;9.65;;
15996;SDS011;8103;51.340;12.326;2023-03-01T11:01:05;11.43;;;9.43;;
15996;SDS011;8103;51.340;12.326;2023-03-01T11:04:03;13.85;;;12.32;;
15996;SDS011;8103;51.340;12.326;2023-03-01T11:06:33;11.27;;;10.15;;
15996;SDS011;8103;51.340;12.326;2023-03-01T11:09:15;11.15;;;10.05;;
15996;SDS011;8103;51.340;12.326;2023-03-01T11:11:54;10.50;;;9.45;;
15996;SDS011;8103;51.340;12.326;2023-03-01T11:14:24;11.38;;;8.77;;
15996;SDS011;8103;51.340;12.326;2023-03-01T11:16:58;15.60;;;10.60;;
15996;SDS011;8103;51.340;12.326;2023-03-01T11:19:50;10.68;;;9.57;;
15996;SDS011;8103;51.340;12.326;2023-03-01T11:22:28;12.73;;;11.43;;
15996;SDS011;8103;51.340;12.326;2023-03-01T11:25:01;12.77;;;11.52;;
15996;SDS011;8103;51.340;12.326;2023-03-01T11:27:40;12.02;;;10.82;;
15996;SDS011;8103;51.340;12.326;2023-03-01T11:30:20;13.52;;;12.13;;
15996;SDS011;8103;51.340;12.326;2023-03-01T11:35:35;13.35;;;11.85;;
15996;SDS011;8103;51.340;12.326;2023-03-01T11:38:16;13.40;;;11.63;;
15996;SDS011;8103;51.340;12.326;2023-03-01T11:40:51;14.63;;;12.68;;
15996;SDS011;8103;51.340;12.326;2023-03-01T11:43:55;13.20;;;11.90;;
15996;SDS011;8103;51.340;12.326;2023-03-01T11:49:34;13.77;;;12.25;;
15996;SDS011;8103;51.340;12.326;2023-03-01T11:52:46;13.00;;;11.80;;
15996;SDS011;8103;51.340;12.326;2023-03-01T11:58:34;13.63;;;12.10;;
15996;SDS011;8103;51.340;12.326;2023-03-01T12:13:35;12.23;;;10.75;;
15996;SDS011;8103;51.340;12.326;2023-03-01T12:19:41;13.48;;;11.48;;
15996;SDS011;8103;51.340;12.326;2023-03-01T12:22:59;10.45;;;9.40;;
15996;SDS011;8103;51.340;12.326;2023-03-01T12:29:00;12.18;;;10.70;;
15996;SDS011;8103;51.340;12.326;2023-03-01T12:37:51;8.40;;;7.60;;
15996;SDS011;8103;51.340;12.326;2023-03-01T12:40:45;10.05;;;9.07;;
15996;SDS011;8103;51.340;12.326;2023-03-01T12:43:56;9.57;;;8.52;;
15996;SDS011;8103;51.340;12.326;2023-03-01T12:47:03;9.60;;;8.60;;
15996;SDS011;8103;51.340;12.326;2023-03-01T12:49:52;9.30;;;8.30;;
15996;SDS011;8103;51.340;12.326;2023-03-01T12:52:44;10.75;;;9.65;;
15996;SDS011;8103;51.340;12.326;2023-03-01T12:55:24;10.45;;;9.45;;
15996;SDS011;8103;51.340;12.326;2023-03-01T12:58:05;11.27;;;8.90;;
15996;SDS011;8103;51.340;12.326;2023-03-01T13:01:14;9.68;;;8.68;;
15996;SDS011;8103;51.340;12.326;2023-03-01T13:04:01;10.55;;;9.52;;
15996;SDS011;8103;51.340;12.326;2023-03-01T13:06:58;13.63;;;10.50;;
15996;SDS011;8103;51.340;12.326;2023-03-01T13:10:16;11.90;;;9.63;;
15996;SDS011;8103;51.340;12.326;2023-03-01T13:13:02;11.50;;;10.30;;
15996;SDS011;8103;51.340;12.326;2023-03-01T13:15:40;12.10;;;9.60;;
15996;SDS011;8103;51.340;12.326;2023-03-01T13:20:47;20.08;;;15.65;;
15996;SDS011;8103;51.340;12.326;2023-03-01T13:31:10;9.65;;;8.75;;
15996;SDS011;8103;51.340;12.326;2023-03-01T13:34:00;9.25;;;8.32;;
15996;SDS011;8103;51.340;12.326;2023-03-01T13:39:04;11.43;;;9.05;;
15996;SDS011;8103;51.340;12.326;2023-03-01T13:41:53;14.88;;;11.50;;
15996;SDS011;8103;51.340;12.326;2023-03-01T13:51:04;13.70;;;10.95;;
15996;SDS011;8103;51.340;12.326;2023-03-01T13:53:38;13.82;;;9.50;;
15996;SDS011;8103;51.340;12.326;2023-03-01T13:56:12;10.65;;;8.20;;
15996;SDS011;8103;51.340;12.326;2023-03-01T13:58:54;9.38;;;8.45;;
15996;SDS011;8103;51.340;12.326;2023-03-01T14:01:29;10.07;;;9.05;;
15996;SDS011;8103;51.340;12.326;2023-03-01T14:04:03;12.00;;;8.90;;
15996;SDS011;8103;51.340;12.326;2023-03-01T14:09:45;11.00;;;8.55;;
15996;SDS011;8103;51.340;12.326;2023-03-01T14:15:08;10.40;;;9.18;;
15996;SDS011;8103;51.340;12.326;2023-03-01T14:18:04;11.13;;;8.23;;
15996;SDS011;8103;51.340;12.326;2023-03-01T14:20:49;9.27;;;8.38;;
15996;SDS011;8103;51.340;12.326;2023-03-01T14:23:23;11.82;;;7.43;;
15996;SDS011;8103;51.340;12.326;2023-03-01T14:25:51;14.20;;;12.73;;
15996;SDS011;8103;51.340;12.326;2023-03-01T14:28:24;9.02;;;7.10;;
15996;SDS011;8103;51.340;12.326;2023-03-01T14:30:55;8.90;;;6.95;;
15996;SDS011;8103;51.340;12.326;2023-03-01T14:33:25;8.77;;;7.63;;
15996;SDS011;8103;51.340;12.326;2023-03-01T14:36:02;7.30;;;6.38;;
15996;SDS011;8103;51.340;12.326;2023-03-01T14:38:44;7.28;;;6.18;;
15996;SDS011;8103;51.340;12.326;2023-03-01T14:41:17;11.43;;;7.07;;
15996;SDS011;8103;51.340;12.326;2023-03-01T14:43:52;8.50;;;7.65;;
15996;SDS011;8103;51.340;12.326;2023-03-01T14:46:29;8.10;;;7.05;;
15996;SDS011;8103;51.340;12.326;2023-03-01T14:49:15;10.95;;;8.23;;
15996;SDS011;8103;51.340;12.326;2023-03-01T14:51:52;7.97;;;7.18;;
15996;SDS011;8103;51.340;12.326;2023-03-01T14:54:35;8.45;;;7.18;;
15996;SDS011;8103;51.340;12.326;2023-03-01T14:57:12;8.50;;;7.07;;
15996;SDS011;8103;51.340;12.326;2023-03-01T14:59:43;12.32;;;7.90;;
15996;SDS011;8103;51.340;12.326;2023-03-01T15:02:15;7.60;;;6.38;;
15996;SDS011;8103;51.340;12.326;2023-03-01T15:04:55;9.07;;;6.80;;
15996;SDS011;8103;51.340;12.326;2023-03-01T15:07:31;11.32;;;7.25;;
15996;SDS011;8103;51.340;12.326;2023-03-01T15:10:04;12.32;;;7.30;;
15996;SDS011;8103;51.340;12.326;2023-03-01T15:12:34;10.25;;;6.93;;
15996;SDS011;8103;51.340;12.326;2023-03-01T15:17:56;10.23;;;6.93;;
15996;SDS011;8103;51.340;12.326;2023-03-01T15:20:31;12.25;;;6.80;;
15996;SDS011;8103;51.340;12.326;2023-03-01T15:23:02;9.75;;;6.70;;
15996;SDS011;8103;51.340;12.326;2023-03-01T15:25:30;8.18;;;6.32;;
15996;SDS011;8103;51.340;12.326;2023-03-01T15:28:00;9.70;;;6.38;;
15996;SDS011;8103;51.340;12.326;2023-03-01T15:30:32;8.40;;;5.93;;
15996;SDS011;8103;51.340;12.326;2023-03-01T15:35:56;7.72;;;5.63;;
15996;SDS011;8103;51.340;12.326;2023-03-01T15:38:32;12.70;;;7.22;;
15996;SDS011;8103;51.340;12.326;2023-03-01T15:41:22;11.77;;;6.53;;
15996;SDS011;8103;51.340;12.326;2023-03-01T15:43:59;9.88;;;5.85;;
15996;SDS011;8103;51.340;12.326;2023-03-01T15:46:44;10.00;;;6.47;;
15996;SDS011;8103;51.340;12.326;2023-03-01T15:49:31;9.35;;;6.00;;
15996;SDS011;8103;51.340;12.326;2023-03-01T15:52:20;7.55;;;6.03;;
15996;SDS011;8103;51.340;12.326;2023-03-01T15:54:58;10.20;;;5.90;;
15996;SDS011;8103;51.340;12.326;2023-03-01T15:57:28;9.63;;;6.43;;
15996;SDS011;8103;51.340;12.326;2023-03-01T15:59:56;7.47;;;5.10;;
15996;SDS011;8103;51.340;12.326;2023-03-01T16:02:23;11.27;;;6.53;;
15996;SDS011;8103;51.340;12.326;2023-03-01T16:04:50;9.90;;;5.70;;
15996;SDS011;8103;51.340;12.326;2023-03-01T16:07:17;8.90;;;6.10;;
15996;SDS011;8103;51.340;12.326;2023-03-01T16:09:44;10.35;;;6.90;;
15996;SDS011;8103;51.340;12.326;2023-03-01T16:12:15;7.03;;;5.63;;
15996;SDS011;8103;51.340;12.326;2023-03-01T16:14:42;7.72;;;5.32;;
15996;SDS011;8103;51.340;12.326;2023-03-01T16:17:09;6.90;;;5.68;;
15996;SDS011;8103;51.340;12.326;2023-03-01T16:19:37;8.18;;;5.72;;
15996;SDS011;8103;51.340;12.326;2023-03-01T16:22:04;10.13;;;5.47;;
15996;SDS011;8103;51.340;12.326;2023-03-01T16:24:31;10.15;;;6.70;;
15996;SDS011;8103;51.340;12.326;2023-03-01T16:26:58;9.93;;;6.57;;
15996;SDS011;8103;51.340;12.326;2023-03-01T16:29:25;7.53;;;5.15;;
15996;SDS011;8103;51.340;12.326;2023-03-01T16:31:52;9.70;;;5.78;;
15996;SDS011;8103;51.340;12.326;2023-03-01T16:34:19;13.38;;;7.25;;
15996;SDS011;8103;51.340;12.326;2023-03-01T16:36:47;8.57;;;5.95;;
15996;SDS011;8103;51.340;12.326;2023-03-01T16:39:15;7.32;;;5.47;;
15996;SDS011;8103;51.340;12.326;2023-03-01T16:41:42;9.75;;;7.00;;